createdAt,value
2023-03-05T00:03:21.863Z,59.63
2023-03-05T00:05:59.817Z,60.75
2023-03-05T00:08:33.625Z,56.40
2023-03-05T00:11:10.839Z,57.78
2023-03-05T00:13:44.458Z,53.90
2023-03-05T00:16:18.234Z,56.05
2023-03-05T00:21:33.801Z,56.20
2023-03-05T00:24:15.052Z,50.65
2023-03-05T00:26:49.966Z,51.70
2023-03-05T00:29:22.725Z,59.05
2023-03-05T00:31:56.151Z,56.57
2023-03-05T00:34:29.955Z,51.63
2023-03-05T00:39:35.127Z,53.23
2023-03-05T00:42:09.015Z,54.15
2023-03-05T00:44:43.266Z,52.83
2023-03-05T00:47:17.892Z,50.88
2023-03-05T00:49:51.608Z,54.58
2023-03-05T00:52:24.418Z,50.52
2023-03-05T00:54:58.351Z,48.63
2023-03-05T00:57:31.109Z,49.40
2023-03-05T01:00:04.541Z,52.90
2023-03-05T01:02:37.714Z,55.65
2023-03-05T01:05:14.738Z,55.50
2023-03-05T01:07:47.784Z,54.42
2023-03-05T01:10:20.992Z,48.78
2023-03-05T01:12:55.939Z,56.18
2023-03-05T01:15:29.943Z,47.85
2023-03-05T01:18:02.823Z,53.05
2023-03-05T01:20:36.124Z,59.88
2023-03-05T01:23:09.781Z,57.60
2023-03-05T01:25:43.362Z,57.53
2023-03-05T01:28:16.637Z,58.02
2023-03-05T01:30:51.591Z,62.83
2023-03-05T01:33:24.972Z,63.08
2023-03-05T01:35:57.672Z,60.03
2023-03-05T01:38:31.026Z,58.95
2023-03-05T01:41:04.104Z,65.03
2023-03-05T01:43:36.970Z,59.73
2023-03-05T01:46:30.555Z,63.80
2023-03-05T01:49:13.850Z,61.35
2023-03-05T01:52:04.346Z,70.85
2023-03-05T01:55:00.385Z,64.80
2023-03-05T01:57:40.034Z,72.90
2023-03-05T02:00:17.634Z,80.10
2023-03-05T02:02:52.391Z,67.08
2023-03-05T02:05:35.441Z,69.77
2023-03-05T02:08:12.455Z,65.20
2023-03-05T02:10:49.581Z,74.58
2023-03-05T02:13:31.779Z,68.87
2023-03-05T02:16:05.132Z,67.53
2023-03-05T02:18:38.497Z,63.95
2023-03-05T02:21:14.979Z,69.45
2023-03-05T02:23:47.767Z,67.17
2023-03-05T02:26:20.690Z,67.87
2023-03-05T02:28:57.139Z,71.37
2023-03-05T02:31:31.452Z,70.12
2023-03-05T02:34:06.654Z,63.00
2023-03-05T02:36:41.435Z,66.70
2023-03-05T02:39:14.919Z,72.05
2023-03-05T02:41:47.856Z,66.95
2023-03-05T02:44:20.783Z,73.37
2023-03-05T02:46:54.280Z,71.00
2023-03-05T02:49:27.171Z,62.33
2023-03-05T02:52:00.139Z,71.15
2023-03-05T02:54:33.328Z,64.30
2023-03-05T02:57:07.764Z,70.50
2023-03-05T03:02:14.025Z,71.30
2023-03-05T03:04:48.535Z,69.92
2023-03-05T03:07:21.560Z,71.50
2023-03-05T03:09:54.792Z,67.75
2023-03-05T03:12:28.745Z,75.75
2023-03-05T03:15:03.191Z,71.87
2023-03-05T03:17:38.883Z,74.77
2023-03-05T03:20:15.431Z,67.25
2023-03-05T03:22:49.057Z,71.17
2023-03-05T03:25:23.866Z,71.42
2023-03-05T03:27:58.238Z,76.45
2023-03-05T03:30:30.888Z,75.47
2023-03-05T03:33:03.776Z,78.60
2023-03-05T03:35:38.509Z,72.12
2023-03-05T03:38:12.299Z,71.60
2023-03-05T03:43:17.903Z,70.45
2023-03-05T03:48:24.484Z,78.28
2023-03-05T03:50:57.353Z,79.62
2023-03-05T03:53:30.443Z,79.62
2023-03-05T03:56:03.795Z,84.07
2023-03-05T04:01:09.331Z,68.47
2023-03-05T04:03:42.076Z,80.30
2023-03-05T04:06:15.784Z,88.07
2023-03-05T04:08:49.037Z,75.70
2023-03-05T04:11:23.598Z,82.82
2023-03-05T04:13:56.349Z,78.42
2023-03-05T04:16:29.788Z,85.65
2023-03-05T04:19:03.290Z,82.95
2023-03-05T04:21:36.022Z,82.12
2023-03-05T04:24:10.409Z,78.35
2023-03-05T04:26:43.155Z,81.28
2023-03-05T04:29:15.948Z,76.92
2023-03-05T04:31:49.654Z,77.95
2023-03-05T04:34:22.560Z,82.85
2023-03-05T04:36:55.718Z,82.55
2023-03-05T04:39:28.873Z,85.10
2023-03-05T04:42:01.629Z,75.52
2023-03-05T04:44:35.161Z,83.42
2023-03-05T04:47:08.297Z,76.72
2023-03-05T04:49:41.361Z,80.25
2023-03-05T04:52:15.650Z,73.05
2023-03-05T04:54:48.420Z,81.75
2023-03-05T04:57:23.153Z,86.05
2023-03-05T04:59:55.794Z,80.77
2023-03-05T05:02:28.981Z,73.53
2023-03-05T05:05:01.875Z,77.15
2023-03-05T05:07:35.148Z,74.35
2023-03-05T05:10:09.431Z,79.87
2023-03-05T05:12:42.316Z,83.65
2023-03-05T05:15:15.592Z,80.57
2023-03-05T05:17:49.782Z,83.92
2023-03-05T05:20:23.118Z,86.97
2023-03-05T05:22:56.184Z,81.57
2023-03-05T05:25:29.360Z,81.87
2023-03-05T05:28:02.016Z,78.30
2023-03-05T05:30:34.979Z,76.75
2023-03-05T05:33:08.554Z,67.67
2023-03-05T05:35:42.210Z,69.53
2023-03-05T05:38:15.772Z,59.08
2023-03-05T05:40:49.303Z,58.35
2023-03-05T05:43:22.047Z,55.65
2023-03-05T05:45:55.665Z,53.77
2023-03-05T05:48:30.741Z,51.00
2023-03-05T05:51:13.414Z,54.88
2023-03-05T05:53:47.975Z,66.80
2023-03-05T05:56:22.081Z,64.35
2023-03-05T05:58:55.618Z,49.38
2023-03-05T06:01:33.680Z,54.50
2023-03-05T06:04:06.594Z,51.45
2023-03-05T06:06:39.980Z,49.55
2023-03-05T06:09:13.061Z,49.55
2023-03-05T06:11:45.987Z,43.90
2023-03-05T06:14:18.854Z,46.45
2023-03-05T06:19:24.804Z,36.65
2023-03-05T06:21:57.905Z,39.92
2023-03-05T06:24:30.819Z,44.47
2023-03-05T06:27:04.635Z,39.25
2023-03-05T06:29:38.282Z,42.17
2023-03-05T06:32:11.691Z,41.40
2023-03-05T06:34:44.561Z,43.48
2023-03-05T06:37:17.464Z,45.05
2023-03-05T06:39:50.758Z,40.28
2023-03-05T06:42:23.689Z,47.58
2023-03-05T06:44:56.596Z,38.88
2023-03-05T06:47:29.910Z,39.70
2023-03-05T06:50:03.982Z,37.80
2023-03-05T06:52:39.269Z,37.00
2023-03-05T06:55:12.865Z,38.35
2023-03-05T06:57:45.709Z,36.28
2023-03-05T07:00:18.796Z,36.65
2023-03-05T07:02:51.787Z,31.83
2023-03-05T07:05:25.138Z,31.07
2023-03-05T07:07:58.571Z,33.75
2023-03-05T07:10:31.962Z,31.13
2023-03-05T07:13:05.022Z,30.17
2023-03-05T07:15:41.215Z,29.92
2023-03-05T07:18:14.155Z,28.20
2023-03-05T07:20:46.879Z,29.32
2023-03-05T07:23:20.478Z,33.18
2023-03-05T07:25:53.953Z,32.35
2023-03-05T07:28:27.418Z,30.97
2023-03-05T07:31:03.083Z,33.13
2023-03-05T07:33:37.502Z,30.68
2023-03-05T07:36:12.335Z,27.17
2023-03-05T07:38:45.472Z,32.28
2023-03-05T07:41:22.235Z,25.85
2023-03-05T07:43:56.735Z,27.90
2023-03-05T07:46:33.051Z,25.27
2023-03-05T07:49:06.859Z,27.62
2023-03-05T07:51:42.037Z,23.55
2023-03-05T07:54:14.664Z,24.67
2023-03-05T07:56:47.989Z,19.98
2023-03-05T07:59:20.796Z,19.25
2023-03-05T08:01:54.120Z,16.90
2023-03-05T08:04:27.355Z,21.30
2023-03-05T08:07:01.466Z,15.68
2023-03-05T08:09:36.239Z,12.65
2023-03-05T08:12:10.759Z,15.90
2023-03-05T08:14:44.329Z,15.72
2023-03-05T08:17:16.993Z,17.35
2023-03-05T08:19:50.402Z,12.03
2023-03-05T08:22:23.775Z,18.17
2023-03-05T08:24:57.356Z,16.47
2023-03-05T08:27:30.198Z,16.97
2023-03-05T08:30:04.235Z,19.62
2023-03-05T08:32:37.436Z,16.02
2023-03-05T08:35:10.653Z,15.28
2023-03-05T08:37:43.983Z,22.90
2023-03-05T08:40:19.088Z,15.40
2023-03-05T08:42:52.360Z,19.27
2023-03-05T08:45:25.782Z,15.68
2023-03-05T08:47:59.529Z,15.98
2023-03-05T08:50:32.900Z,16.65
2023-03-05T08:53:05.739Z,15.75
2023-03-05T08:55:38.763Z,18.48
2023-03-05T08:58:11.877Z,16.40
2023-03-05T09:00:44.554Z,14.60
2023-03-05T09:03:17.396Z,17.98
2023-03-05T09:05:51.638Z,24.27
2023-03-05T09:08:25.008Z,18.20
2023-03-05T09:10:58.850Z,17.52
2023-03-05T09:13:31.687Z,19.00
2023-03-05T09:16:09.893Z,15.80
2023-03-05T09:18:42.935Z,11.68
2023-03-05T09:21:18.662Z,13.08
2023-03-05T09:23:52.069Z,16.42
2023-03-05T09:26:25.517Z,14.60
2023-03-05T09:28:58.817Z,13.83
2023-03-05T09:31:32.116Z,11.40
2023-03-05T09:34:05.677Z,15.43
2023-03-05T09:36:39.563Z,14.10
2023-03-05T09:39:12.402Z,15.65
2023-03-05T09:45:27.979Z,12.55
2023-03-05T09:48:27.482Z,17.45
2023-03-05T09:51:05.760Z,15.90
2023-03-05T09:53:58.085Z,13.45
2023-03-05T09:56:38.120Z,16.10
2023-03-05T09:59:39.844Z,13.65
2023-03-05T10:02:29.485Z,10.75
2023-03-05T10:05:26.472Z,13.18
2023-03-05T10:08:06.052Z,19.67
2023-03-05T10:10:43.340Z,14.47
2023-03-05T10:13:30.383Z,15.90
2023-03-05T10:16:31.911Z,11.22
2023-03-05T10:19:27.218Z,9.40
2023-03-05T10:22:22.591Z,12.85
2023-03-05T10:25:27.636Z,13.35
2023-03-05T10:28:07.893Z,10.68
2023-03-05T10:31:08.192Z,10.70
2023-03-05T10:34:09.292Z,12.53
2023-03-05T10:37:01.893Z,13.75
2023-03-05T10:40:11.649Z,12.10
2023-03-05T10:43:23.341Z,19.77
2023-03-05T10:45:57.044Z,14.63
2023-03-05T10:48:52.566Z,13.80
2023-03-05T10:51:50.905Z,15.53
2023-03-05T10:54:39.251Z,15.88
2023-03-05T10:57:24.264Z,14.30
2023-03-05T11:00:10.855Z,17.62
2023-03-05T11:03:08.238Z,13.35
2023-03-05T11:05:46.034Z,11.97
2023-03-05T11:08:32.940Z,12.82
2023-03-05T11:11:19.023Z,12.88
2023-03-05T11:14:04.194Z,14.40
2023-03-05T11:16:51.089Z,15.20
2023-03-05T11:19:32.244Z,17.67
2023-03-05T11:22:21.426Z,12.43
2023-03-05T11:25:19.366Z,26.10
2023-03-05T11:27:56.447Z,15.72
2023-03-05T11:30:34.113Z,20.55
2023-03-05T11:33:22.911Z,13.90
2023-03-05T11:36:27.423Z,20.15
2023-03-05T11:39:18.592Z,11.97
2023-03-05T11:42:00.937Z,14.87
2023-03-05T11:44:49.730Z,13.65
2023-03-05T11:47:55.147Z,12.82
2023-03-05T11:50:31.510Z,11.90
2023-03-05T11:53:29.076Z,12.58
2023-03-05T11:56:18.072Z,10.55
2023-03-05T11:59:10.607Z,12.70
2023-03-05T12:01:47.833Z,17.02
2023-03-05T12:04:21.891Z,11.03
2023-03-05T12:09:51.095Z,12.40
2023-03-05T12:12:58.761Z,12.70
2023-03-05T12:16:02.773Z,14.70
2023-03-05T12:18:47.302Z,14.43
2023-03-05T12:21:37.688Z,17.42
2023-03-05T12:24:33.217Z,12.40
2023-03-05T12:27:09.937Z,25.17
2023-03-05T12:29:54.670Z,25.57
2023-03-05T12:32:32.411Z,14.35
2023-03-05T12:35:35.330Z,22.75
2023-03-05T12:38:32.344Z,17.45
2023-03-05T12:41:34.016Z,15.75
2023-03-05T12:44:13.996Z,15.25
2023-03-05T12:46:50.736Z,13.13
2023-03-05T12:49:28.655Z,16.48
2023-03-05T12:52:01.243Z,20.23
2023-03-05T12:54:42.295Z,19.25
2023-03-05T12:57:24.294Z,16.70
2023-03-05T13:00:05.690Z,16.42
2023-03-05T13:02:45.560Z,16.40
2023-03-05T13:05:29.533Z,17.20
2023-03-05T13:08:16.378Z,28.73
2023-03-05T13:11:02.329Z,20.27
2023-03-05T13:13:41.155Z,18.90
2023-03-05T13:16:29.522Z,21.85
2023-03-05T13:19:04.425Z,22.22
2023-03-05T13:21:38.716Z,17.52
2023-03-05T13:24:20.103Z,20.27
2023-03-05T13:26:52.889Z,27.30
2023-03-05T13:29:29.867Z,22.82
2023-03-05T13:32:08.008Z,19.17
2023-03-05T13:34:47.625Z,18.17
2023-03-05T13:37:22.684Z,18.90
2023-03-05T13:40:21.868Z,22.52
2023-03-05T13:42:57.069Z,18.87
2023-03-05T13:45:32.483Z,13.20
2023-03-05T13:48:07.616Z,17.92
2023-03-05T13:50:42.223Z,17.80
2023-03-05T13:53:31.102Z,20.27
2023-03-05T13:56:09.126Z,22.58
2023-03-05T13:58:55.157Z,21.42
2023-03-05T14:01:44.140Z,23.18
2023-03-05T14:04:23.930Z,15.15
2023-03-05T14:07:06.412Z,19.30
2023-03-05T14:09:47.486Z,20.82
2023-03-05T14:12:31.304Z,20.08
2023-03-05T14:15:08.431Z,14.93
2023-03-05T14:17:44.418Z,19.60
2023-03-05T14:20:32.305Z,17.98
2023-03-05T14:23:27.011Z,16.55
2023-03-05T14:26:30.150Z,17.77
2023-03-05T14:29:17.302Z,12.53
2023-03-05T14:32:01.783Z,16.10
2023-03-05T14:34:41.525Z,15.20
2023-03-05T14:37:27.147Z,13.32
2023-03-05T14:40:06.615Z,9.93
2023-03-05T14:42:58.898Z,12.50
2023-03-05T14:45:37.947Z,7.70
2023-03-05T14:48:14.183Z,11.35
2023-03-05T14:50:56.527Z,20.72
2023-03-05T14:53:40.036Z,15.35
2023-03-05T14:56:28.630Z,19.67
2023-03-05T14:59:03.245Z,11.90
2023-03-05T15:01:36.488Z,9.55
2023-03-05T15:04:09.741Z,6.62
2023-03-05T15:06:45.980Z,8.15
2023-03-05T15:09:21.417Z,9.40
2023-03-05T15:11:54.667Z,7.42
2023-03-05T15:14:28.470Z,37.67
2023-03-05T15:17:02.381Z,22.30
2023-03-05T15:19:35.902Z,15.40
2023-03-05T15:22:12.046Z,9.15
2023-03-05T15:24:45.936Z,9.60
2023-03-05T15:27:19.087Z,8.63
2023-03-05T15:32:27.598Z,9.85
2023-03-05T15:35:01.498Z,4.80
2023-03-05T15:37:35.408Z,8.98
2023-03-05T15:40:10.049Z,9.63
2023-03-05T15:42:43.630Z,15.35
2023-03-05T15:45:17.475Z,22.93
2023-03-05T15:47:54.900Z,18.87
2023-03-05T15:50:28.028Z,19.05
2023-03-05T15:53:00.825Z,16.95
2023-03-05T15:55:33.943Z,11.57
2023-03-05T15:58:07.928Z,7.75
2023-03-05T16:00:42.292Z,7.25
2023-03-05T16:03:15.386Z,8.40
2023-03-05T16:05:48.036Z,4.00
2023-03-05T16:08:21.423Z,5.17
2023-03-05T16:10:55.122Z,11.20
2023-03-05T16:13:30.157Z,5.00
2023-03-05T16:16:06.394Z,6.67
2023-03-05T16:18:42.625Z,8.58
2023-03-05T16:21:15.740Z,10.05
2023-03-05T16:23:50.117Z,13.65
2023-03-05T16:26:23.494Z,33.53
2023-03-05T16:28:57.069Z,12.03
2023-03-05T16:31:35.600Z,14.73
2023-03-05T16:34:08.825Z,17.27
2023-03-05T16:36:44.497Z,15.60
2023-03-05T16:39:18.016Z,19.40
2023-03-05T16:41:52.993Z,19.23
2023-03-05T16:44:25.798Z,24.40
2023-03-05T16:46:59.490Z,18.60
2023-03-05T16:49:33.324Z,27.42
2023-03-05T16:52:18.456Z,21.93
2023-03-05T16:54:42.476Z,18.07
2023-03-05T16:57:15.980Z,23.83
2023-03-05T16:59:48.819Z,22.20
2023-03-05T17:02:21.733Z,19.90
2023-03-05T17:04:56.493Z,21.75
2023-03-05T17:07:29.338Z,20.72
2023-03-05T17:10:03.110Z,31.77
2023-03-05T17:12:36.977Z,25.25
2023-03-05T17:15:12.273Z,21.23
2023-03-05T17:17:45.077Z,27.85
2023-03-05T17:20:20.415Z,30.90
2023-03-05T17:22:53.277Z,30.82
2023-03-05T17:25:26.218Z,25.45
2023-03-05T17:30:33.748Z,39.45
2023-03-05T17:33:08.204Z,35.35
2023-03-05T17:35:41.504Z,35.95
2023-03-05T17:38:15.632Z,43.13
2023-03-05T17:40:49.333Z,33.02
2023-03-05T17:43:22.218Z,30.92
2023-03-05T17:45:56.639Z,36.28
2023-03-05T17:48:30.121Z,26.30
2023-03-05T17:51:03.722Z,23.32
2023-03-05T17:53:39.258Z,24.82
2023-03-05T17:56:16.241Z,24.87
2023-03-05T17:58:49.682Z,33.65
2023-03-05T18:01:30.591Z,28.62
2023-03-05T18:04:04.174Z,35.68
2023-03-05T18:06:37.142Z,20.05
2023-03-05T18:09:10.365Z,23.42
2023-03-05T18:11:44.486Z,24.00
2023-03-05T18:14:19.019Z,23.55
2023-03-05T18:16:52.546Z,22.75
2023-03-05T18:19:26.155Z,26.70
2023-03-05T18:21:59.082Z,72.78
2023-03-05T18:24:32.045Z,70.85
2023-03-05T18:27:06.042Z,64.22
2023-03-05T18:29:38.972Z,50.15
2023-03-05T18:32:12.683Z,49.15
2023-03-05T18:34:46.834Z,44.53
2023-03-05T18:37:19.710Z,42.23
2023-03-05T18:39:53.274Z,36.73
2023-03-05T18:42:26.453Z,25.10
2023-03-05T18:45:01.141Z,24.52
2023-03-05T18:47:34.604Z,23.52
2023-03-05T18:50:10.461Z,23.07
2023-03-05T18:52:45.908Z,20.25
2023-03-05T18:55:25.384Z,81.63
2023-03-05T18:57:58.805Z,42.08
2023-03-05T19:03:06.149Z,27.48
2023-03-05T19:05:41.872Z,23.95
2023-03-05T19:08:15.585Z,20.15
2023-03-05T19:10:48.813Z,35.25
2023-03-05T19:13:40.759Z,31.53
2023-03-05T19:16:18.611Z,28.10
2023-03-05T19:19:07.910Z,25.50
2023-03-05T19:21:57.371Z,20.20
2023-03-05T19:24:32.727Z,20.57
2023-03-05T19:27:08.248Z,21.97
2023-03-05T19:29:43.177Z,20.32
2023-03-05T19:32:18.374Z,23.15
2023-03-05T19:34:51.779Z,22.62
2023-03-05T19:37:25.327Z,19.00
2023-03-05T19:39:57.925Z,19.87
2023-03-05T19:42:31.365Z,15.58
2023-03-05T19:45:05.114Z,18.27
2023-03-05T19:47:37.903Z,18.90
2023-03-05T19:50:12.896Z,17.60
2023-03-05T19:52:46.886Z,28.07
2023-03-05T19:55:20.524Z,38.42
2023-03-05T19:57:54.412Z,392.10
2023-03-05T20:00:28.157Z,348.02
2023-03-05T20:03:01.028Z,204.95
2023-03-05T20:05:34.364Z,172.93
2023-03-05T20:08:07.046Z,218.93
2023-03-05T20:13:14.025Z,219.15
2023-03-05T20:15:46.841Z,207.30
2023-03-05T20:18:20.149Z,209.30
2023-03-05T20:20:59.988Z,168.97
2023-03-05T20:23:32.980Z,168.05
2023-03-05T20:26:07.351Z,126.38
2023-03-05T20:28:40.410Z,139.92
2023-03-05T20:31:13.806Z,136.10
2023-03-05T20:33:46.687Z,130.67
2023-03-05T20:36:20.018Z,125.80
2023-03-05T20:38:52.999Z,106.35
2023-03-05T20:41:27.218Z,111.20
2023-03-05T20:44:00.933Z,107.67
2023-03-05T20:46:39.864Z,104.25
2023-03-05T20:49:12.675Z,81.02
2023-03-05T20:51:47.277Z,81.45
2023-03-05T20:54:20.529Z,78.10
2023-03-05T20:56:53.424Z,77.17
2023-03-05T20:59:26.153Z,71.07
2023-03-05T21:01:59.524Z,77.33
2023-03-05T21:04:33.336Z,66.55
2023-03-05T21:07:06.395Z,69.95
2023-03-05T21:09:39.572Z,75.78
2023-03-05T21:12:13.260Z,64.35
2023-03-05T21:14:47.625Z,65.85
2023-03-05T21:17:20.485Z,68.22
2023-03-05T21:19:53.775Z,67.55
2023-03-05T21:22:26.938Z,62.13
2023-03-05T21:25:05.064Z,66.80
2023-03-05T21:27:38.261Z,55.73
2023-03-05T21:30:13.757Z,60.55
2023-03-05T21:32:47.295Z,64.30
2023-03-05T21:35:23.157Z,61.70
2023-03-05T21:37:56.663Z,75.15
2023-03-05T21:40:30.184Z,62.00
2023-03-05T21:43:04.055Z,58.33
2023-03-05T21:45:37.228Z,63.48
2023-03-05T21:48:11.438Z,51.80
2023-03-05T21:50:46.769Z,58.10
2023-03-05T21:53:22.347Z,58.80
2023-03-05T21:56:05.946Z,66.82
2023-03-05T21:58:40.119Z,61.28
2023-03-05T22:01:14.972Z,61.92
2023-03-05T22:03:48.582Z,65.60
2023-03-05T22:08:54.935Z,66.37
2023-03-05T22:11:28.416Z,68.47
2023-03-05T22:14:01.851Z,64.75
2023-03-05T22:16:34.747Z,81.22
2023-03-05T22:19:09.125Z,99.97
2023-03-05T22:21:42.340Z,114.88
2023-03-05T22:24:16.951Z,122.53
2023-03-05T22:26:49.950Z,121.37
2023-03-05T22:29:23.291Z,107.87
2023-03-05T22:31:57.003Z,75.20
2023-03-05T22:34:29.943Z,78.02
2023-03-05T22:37:03.061Z,72.37
2023-03-05T22:39:36.376Z,54.15
2023-03-05T22:42:10.906Z,44.65
2023-03-05T22:44:44.312Z,57.20
2023-03-05T22:47:18.148Z,46.55
2023-03-05T22:52:23.952Z,56.83
2023-03-05T22:54:56.902Z,53.05
2023-03-05T22:57:30.212Z,43.02
2023-03-05T23:00:03.287Z,68.70
2023-03-05T23:02:37.096Z,73.02
2023-03-05T23:05:11.150Z,85.73
2023-03-05T23:07:45.208Z,66.40
2023-03-05T23:10:28.726Z,77.35
2023-03-05T23:13:02.976Z,84.83
2023-03-05T23:15:39.446Z,91.05
2023-03-05T23:18:14.594Z,67.58
2023-03-05T23:20:47.568Z,59.03
2023-03-05T23:23:20.884Z,67.20
2023-03-05T23:25:54.538Z,68.90
2023-03-05T23:28:27.296Z,65.50
2023-03-05T23:31:01.060Z,51.13
2023-03-05T23:33:34.101Z,65.32
2023-03-05T23:36:07.921Z,56.13
2023-03-05T23:38:41.947Z,52.83
2023-03-05T23:41:14.679Z,50.28
2023-03-05T23:43:48.870Z,44.38
2023-03-05T23:46:21.673Z,41.00
2023-03-05T23:48:54.644Z,45.90
2023-03-05T23:51:27.397Z,57.65
2023-03-05T23:54:00.346Z,75.72
2023-03-05T23:56:33.458Z,75.70
2023-03-05T23:59:06.620Z,80.03
